Time;durP1;ratioP1;P1;durP2;ratioP2;P2;SDS_P1;SDS_P2;PMS_P1;PMS_P2;Temp;Humidity;BMP_temperature;BMP_pressure;BME280_temperature;BME280_humidity;BME280_pressure;Samples;Min_cycle;Max_cycle;Signal;HPM_P1;HPM_P2
2021/08/19 00:01:48;;;;;;;5.93;3.20;;;;;;;14.92;100.00;96756.34;5044096;28;20163;-64
2021/08/19 00:04:13;;;;;;;5.40;2.97;;;;;;;14.87;100.00;96757.53;5036619;28;20139;-63
2021/08/19 00:06:39;;;;;;;4.97;2.67;;;;;;;14.81;100.00;96763.81;5058878;28;20127;-63
2021/08/19 00:09:04;;;;;;;10.95;5.50;;;;;;;14.81;100.00;96763.81;5052926;28;20097;-69
2021/08/19 00:11:31;;;;;;;13.82;6.78;;;;;;;14.84;100.00;96752.78;5059483;28;20043;-65
2021/08/19 00:13:56;;;;;;;5.20;2.83;;;;;;;14.87;100.00;96756.72;5060144;28;20198;-65
2021/08/19 00:16:22;;;;;;;6.38;2.88;;;;;;;14.93;100.00;96754.34;5052688;28;20853;-63
2021/08/19 00:18:47;;;;;;;5.55;2.92;;;;;;;14.98;100.00;96762.25;5040587;28;20056;-63
2021/08/19 00:21:12;;;;;;;7.00;2.65;;;;;;;15.07;100.00;96755.16;5034910;28;20087;-64
2021/08/19 00:23:38;;;;;;;7.72;3.33;;;;;;;15.15;100.00;96757.91;5039990;28;20037;-63
2021/08/19 00:26:05;;;;;;;6.80;2.78;;;;;;;15.42;100.00;96755.50;5036389;28;20037;-69
2021/08/19 00:28:31;;;;;;;6.18;2.90;;;;;;;15.53;100.00;96764.56;5039606;28;20617;-66
2021/08/19 00:30:56;;;;;;;6.38;3.08;;;;;;;15.50;100.00;96754.28;5039761;28;20700;-60
2021/08/19 00:33:23;;;;;;;6.18;2.80;;;;;;;15.55;100.00;96756.66;5031969;28;20049;-64
2021/08/19 00:35:49;;;;;;;9.25;3.22;;;;;;;15.49;100.00;96750.75;5036986;28;20064;-65
2021/08/19 00:38:14;;;;;;;6.35;2.80;;;;;;;15.44;100.00;96762.19;5034715;28;20143;-65
2021/08/19 00:40:39;;;;;;;4.93;2.60;;;;;;;15.27;100.00;96754.75;5038499;28;20041;-63
2021/08/19 00:43:06;;;;;;;5.72;3.20;;;;;;;15.13;100.00;96758.31;5030738;28;20041;-66
2021/08/19 00:45:35;;;;;;;6.63;2.78;;;;;;;15.07;100.00;96763.44;5038063;28;20059;-64
2021/08/19 00:48:01;;;;;;;5.07;2.95;;;;;;;15.05;100.00;96751.19;5038763;28;20041;-63
2021/08/19 00:50:26;;;;;;;8.30;3.00;;;;;;;15.02;100.00;96760.28;5032550;28;20052;-65
2021/08/19 00:52:52;;;;;;;6.50;2.88;;;;;;;15.03;100.00;96754.34;5041521;28;20037;-62
2021/08/19 00:55:18;;;;;;;6.05;3.05;;;;;;;15.05;100.00;96752.00;5054098;28;20084;-63
2021/08/19 00:57:44;;;;;;;7.53;2.78;;;;;;;15.03;100.00;96748.84;5060506;28;20125;-66
2021/08/19 01:00:13;;;;;;;8.45;3.03;;;;;;;14.97;100.00;96749.66;5061832;28;20037;-67
2021/08/19 01:02:42;;;;;;;7.53;2.70;;;;;;;14.94;100.00;96747.66;5066535;28;20044;-64
2021/08/19 01:05:09;;;;;;;6.30;2.63;;;;;;;15.01;100.00;96742.94;5038396;28;20202;-62
2021/08/19 01:07:34;;;;;;;4.82;2.70;;;;;;;15.13;100.00;96746.50;5059831;28;20429;-59
2021/08/19 01:10:00;;;;;;;5.68;2.35;;;;;;;15.15;100.00;96749.63;5059807;28;20044;-62
2021/08/19 01:12:26;;;;;;;6.65;2.78;;;;;;;15.24;100.00;96744.50;5035567;28;20115;-64
2021/08/19 01:14:51;;;;;;;3.60;2.33;;;;;;;15.37;100.00;96751.16;5045294;28;20045;-62
2021/08/19 01:17:18;;;;;;;4.50;2.17;;;;;;;15.51;100.00;96749.59;5032138;28;20460;-63
2021/08/19 01:19:51;;;;;;;6.43;3.03;;;;;;;15.53;100.00;96744.44;5036844;28;20118;-63
2021/08/19 01:22:18;;;;;;;5.38;3.00;;;;;;;15.44;100.00;96740.13;5033365;28;20406;-66
2021/08/19 01:24:44;;;;;;;5.78;2.92;;;;;;;15.38;100.00;96747.25;5038000;28;20128;-66
2021/08/19 01:27:17;;;;;;;5.57;2.55;;;;;;;15.48;100.00;96743.69;5023359;28;20088;-66
2021/08/19 01:29:44;;;;;;;10.65;4.60;;;;;;;15.44;100.00;96742.09;5038456;28;20394;-67
2021/08/19 01:32:11;;;;;;;11.05;5.70;;;;;;;15.16;100.00;96738.22;5033340;28;20029;-67
2021/08/19 01:34:37;;;;;;;7.43;2.42;;;;;;;15.17;100.00;96741.75;5037372;28;20218;-66
2021/08/19 01:37:03;;;;;;;5.28;2.65;;;;;;;15.18;100.00;96740.56;5018957;28;20058;-68
2021/08/19 01:39:29;;;;;;;8.07;3.03;;;;;;;15.17;100.00;96745.28;5036882;28;20044;-66
2021/08/19 01:41:54;;;;;;;3.90;2.50;;;;;;;15.29;100.00;96746.88;5038228;28;20128;-66
2021/08/19 01:44:20;;;;;;;6.93;2.28;;;;;;;15.41;100.00;96743.69;5026103;28;20090;-66
2021/08/19 01:47:00;;;;;;;6.30;2.53;;;;;;;15.62;100.00;96747.56;5031159;28;20038;-66
2021/08/19 01:49:25;;;;;;;;;;;;;;;15.76;100.00;96752.31;5032040;28;20460;-67
2021/08/19 01:51:52;;;;;;;4.28;2.47;;;;;;;15.74;100.00;96754.66;5030970;28;20025;-68
2021/08/19 01:54:17;;;;;;;4.00;2.25;;;;;;;15.68;100.00;96751.50;5032292;28;20098;-67
2021/08/19 01:56:43;;;;;;;12.43;4.03;;;;;;;15.63;100.00;96743.66;5036244;28;20704;-68
2021/08/19 01:59:08;;;;;;;8.45;3.38;;;;;;;15.64;100.00;96745.97;5033784;28;20040;-66
2021/08/19 02:01:34;;;;;;;6.78;2.28;;;;;;;15.63;100.00;96743.66;5038149;28;20098;-67
2021/08/19 02:04:04;;;;;;;7.18;2.80;;;;;;;15.74;100.00;96749.13;5035756;28;20148;-67
2021/08/19 02:06:30;;;;;;;4.80;2.28;;;;;;;15.84;100.00;96742.78;5031270;28;20041;-67
2021/08/19 02:08:56;;;;;;;4.88;2.35;;;;;;;15.98;100.00;96742.75;5026561;28;20157;-67
2021/08/19 02:11:21;;;;;;;4.05;2.67;;;;;;;16.07;100.00;96739.53;5028985;28;20217;-67
2021/08/19 02:13:47;;;;;;;8.15;2.60;;;;;;;16.12;99.93;96741.13;5029113;28;20045;-65
2021/08/19 02:16:13;;;;;;;8.65;2.05;;;;;;;16.15;99.04;96743.06;5033271;28;20047;-67
2021/08/19 02:18:38;;;;;;;3.70;2.15;;;;;;;16.12;99.20;96739.13;5029793;28;20132;-67
2021/08/19 02:21:04;;;;;;;5.28;2.58;;;;;;;15.89;100.00;96739.63;5029712;28;20410;-69
2021/08/19 02:23:30;;;;;;;4.15;2.13;;;;;;;15.76;100.00;96749.53;5040307;28;20112;-67
2021/08/19 02:25:55;;;;;;;6.82;3.00;;;;;;;15.56;100.00;96738.13;5041271;28;20029;-66
2021/08/19 02:28:21;;;;;;;3.88;2.28;;;;;;;15.49;100.00;96741.69;5029926;28;20060;-66
2021/08/19 02:30:46;;;;;;;4.68;2.20;;;;;;;15.44;100.00;96740.13;5041433;28;20041;-68
2021/08/19 02:33:11;;;;;;;5.95;2.60;;;;;;;15.46;100.00;96736.97;5036469;28;20052;-66
2021/08/19 02:35:37;;;;;;;3.33;2.30;;;;;;;15.62;100.00;96745.59;5041041;28;20048;-67
2021/08/19 02:38:06;;;;;;;4.28;2.47;;;;;;;15.67;100.00;96741.66;5046264;28;20032;-69
2021/08/19 02:40:33;;;;;;;4.97;2.47;;;;;;;15.64;100.00;96737.69;5036955;28;20041;-67
2021/08/19 02:42:58;;;;;;;4.47;2.85;;;;;;;15.58;100.00;96731.03;5037336;28;20573;-65
2021/08/19 02:45:24;;;;;;;5.10;2.63;;;;;;;15.49;100.00;96727.91;5036486;28;20191;-66
2021/08/19 02:47:49;;;;;;;6.40;2.80;;;;;;;15.38;100.00;96729.91;5033826;28;20106;-66
2021/08/19 02:50:17;;;;;;;7.20;3.10;;;;;;;15.31;100.00;96733.47;5036263;28;20072;-66
2021/08/19 02:52:42;;;;;;;5.60;2.40;;;;;;;15.30;100.00;96726.34;5041801;28;20067;-65
2021/08/19 02:55:09;;;;;;;7.10;2.88;;;;;;;15.33;100.00;96730.31;5027371;28;20763;-66
2021/08/19 02:57:34;;;;;;;5.18;2.45;;;;;;;15.36;100.00;96729.50;5033932;28;20390;-64
2021/08/19 03:00:00;;;;;;;3.28;2.28;;;;;;;15.42;100.00;96730.69;5032651;28;20049;-66
2021/08/19 03:02:26;;;;;;;6.13;2.50;;;;;;;15.49;100.00;96722.38;5034327;28;20059;-67
2021/08/19 03:04:51;;;;;;;6.05;2.53;;;;;;;15.62;100.00;96728.25;5030977;28;20391;-66
2021/08/19 03:07:17;;;;;;;4.82;2.60;;;;;;;15.66;100.00;96727.06;5022992;28;20048;-66
2021/08/19 03:09:43;;;;;;;5.35;2.22;;;;;;;15.76;100.00;96728.22;5036394;28;20178;-67
2021/08/19 03:12:09;;;;;;;6.00;2.55;;;;;;;15.90;100.00;96735.69;5025375;28;20124;-66
2021/08/19 03:14:34;;;;;;;5.20;2.38;;;;;;;15.99;99.60;96732.47;5041992;28;20106;-67
2021/08/19 03:17:01;;;;;;;6.03;2.72;;;;;;;15.93;99.50;96739.59;5041133;28;20445;-66
2021/08/19 03:19:27;;;;;;;3.45;2.22;;;;;;;15.75;100.00;96728.63;5036178;28;20079;-66
2021/08/19 03:21:53;;;;;;;7.78;2.53;;;;;;;15.59;100.00;96738.13;5030069;28;20040;-63
2021/08/19 03:24:18;;;;;;;16.35;3.67;;;;;;;15.55;100.00;96731.81;5034015;28;20047;-62
2021/08/19 03:26:44;;;;;;;4.40;2.47;;;;;;;15.67;100.00;96730.59;5040775;28;20565;-65
2021/08/19 03:29:09;;;;;;;5.45;2.90;;;;;;;15.76;100.00;96727.47;5033400;28;20103;-68
2021/08/19 03:31:35;;;;;;;7.97;3.92;;;;;;;15.85;100.00;96728.59;5036163;28;20508;-61
2021/08/19 03:34:01;;;;;;;4.63;2.40;;;;;;;15.93;99.45;96721.06;5039602;28;20045;-61
2021/08/19 03:36:26;;;;;;;5.28;2.33;;;;;;;15.91;99.55;96728.97;5025750;28;20049;-63
2021/08/19 03:38:52;;;;;;;4.45;1.92;;;;;;;15.88;99.19;96729.75;5027216;28;20051;-62
2021/08/19 03:41:18;;;;;;;5.35;2.10;;;;;;;15.91;98.93;96728.97;5034901;28;20040;-64
2021/08/19 03:43:45;;;;;;;6.05;2.33;;;;;;;15.89;98.80;96725.03;5029499;28;20045;-63
2021/08/19 03:46:12;;;;;;;7.75;2.50;;;;;;;15.75;99.63;96723.88;5034009;28;20045;-63
2021/08/19 03:48:37;;;;;;;5.75;2.42;;;;;;;15.62;100.00;96733.78;5039398;28;20045;-62
2021/08/19 03:51:03;;;;;;;5.00;2.22;;;;;;;15.54;100.00;96734.97;5029408;28;20075;-69
2021/08/19 03:53:29;;;;;;;4.88;2.38;;;;;;;15.38;100.00;96733.44;5042696;28;20048;-65
2021/08/19 03:55:55;;;;;;;3.88;2.25;;;;;;;15.29;100.00;96728.31;5015061;28;20124;-66
2021/08/19 03:58:20;;;;;;;3.83;2.70;;;;;;;15.51;100.00;96728.28;5032294;28;20056;-64
2021/08/19 04:00:47;;;;;;;6.60;2.90;;;;;;;15.64;100.00;96734.16;5032598;28;20486;-61
2021/08/19 04:03:14;;;;;;;7.75;2.88;;;;;;;15.61;100.00;96735.75;5024770;28;20049;-64
2021/08/19 04:05:40;;;;;;;5.82;2.25;;;;;;;15.56;100.00;96733.41;5031243;28;20127;-62
2021/08/19 04:08:06;;;;;;;4.18;2.35;;;;;;;15.61;100.00;96730.22;5024741;28;20498;-63
2021/08/19 04:10:31;;;;;;;4.30;2.45;;;;;;;15.74;100.00;96722.31;5026593;28;20041;-64
2021/08/19 04:12:57;;;;;;;3.40;2.03;;;;;;;15.82;100.00;96725.84;5029136;28;20069;-64
2021/08/19 04:15:22;;;;;;;4.43;2.53;;;;;;;16.01;99.15;96727.34;5030619;28;20052;-62
2021/08/19 04:17:51;;;;;;;7.40;2.20;;;;;;;15.95;98.63;96723.41;5039681;28;20501;-61
2021/08/19 04:20:17;;;;;;;4.88;2.10;;;;;;;15.88;99.63;96729.75;5033904;28;20045;-62
2021/08/19 04:22:42;;;;;;;7.53;2.40;;;;;;;15.90;100.00;96734.88;5030295;28;20132;-59
2021/08/19 04:25:08;;;;;;;5.50;1.85;;;;;;;15.89;99.91;96736.09;5030705;28;20048;-65
2021/08/19 04:27:34;;;;;;;5.60;2.35;;;;;;;15.84;99.40;96732.53;5038604;28;20049;-63
2021/08/19 04:29:59;;;;;;;5.32;2.30;;;;;;;15.86;99.41;96726.59;5034191;28;20049;-60
2021/08/19 04:32:24;;;;;;;10.20;3.00;;;;;;;15.89;99.60;96730.56;5028775;28;20506;-64
2021/08/19 04:34:50;;;;;;;3.97;2.20;;;;;;;15.84;99.55;96735.28;5034080;28;20066;-61
2021/08/19 04:37:15;;;;;;;5.97;2.58;;;;;;;15.76;100.00;96724.69;5032132;28;20056;-62
2021/08/19 04:39:40;;;;;;;6.13;2.85;;;;;;;15.70;100.00;96723.47;5032058;28;20044;-61
2021/08/19 04:42:06;;;;;;;3.72;2.08;;;;;;;15.74;100.00;96732.56;5022511;28;20052;-66
2021/08/19 04:44:31;;;;;;;7.55;2.38;;;;;;;15.79;100.00;96732.16;5026951;28;20425;-64
2021/08/19 04:46:57;;;;;;;9.50;2.47;;;;;;;15.73;100.00;96723.47;5037747;28;20124;-62
2021/08/19 04:49:22;;;;;;;6.20;2.20;;;;;;;15.76;100.00;96725.47;5015408;28;20121;-64
2021/08/19 04:51:47;;;;;;;5.47;2.15;;;;;;;15.91;99.31;96730.94;5039613;28;20037;-62
2021/08/19 04:54:13;;;;;;;6.78;2.88;;;;;;;15.86;99.05;96727.41;5032983;28;20083;-61
2021/08/19 04:56:38;;;;;;;3.58;2.20;;;;;;;15.82;99.35;96737.66;5038943;28;20041;-64
2021/08/19 04:59:05;;;;;;;4.47;2.63;;;;;;;15.73;99.92;96737.28;5034414;28;20129;-70
2021/08/19 05:01:31;;;;;;;5.97;2.50;;;;;;;15.78;100.00;96730.59;5033898;28;20068;-63
2021/08/19 05:03:59;;;;;;;3.08;2.05;;;;;;;15.84;100.00;96731.75;5038829;28;20506;-64
2021/08/19 05:06:29;;;;;;;4.63;2.30;;;;;;;15.89;100.00;96736.88;5033472;28;20041;-62
2021/08/19 05:08:55;;;;;;;5.72;2.50;;;;;;;16.00;99.81;96740.34;5037734;28;20045;-62
2021/08/19 05:11:24;;;;;;;4.90;2.40;;;;;;;16.12;98.90;96736.38;5022812;28;20056;-62
2021/08/19 05:13:51;;;;;;;4.67;1.93;;;;;;;16.32;97.45;96735.88;5014044;28;20132;-60
2021/08/19 05:16:17;;;;;;;5.40;2.65;;;;;;;16.36;96.53;96739.41;5024974;28;20954;-64
2021/08/19 05:18:46;;;;;;;6.15;2.40;;;;;;;16.30;96.20;96735.50;5038645;28;20037;-62
2021/08/19 05:21:12;;;;;;;8.50;2.55;;;;;;;16.29;96.93;96736.66;5034451;28;20041;-65
2021/08/19 05:23:39;;;;;;;5.00;1.98;;;;;;;16.40;96.53;96740.97;5039501;28;20049;-68
2021/08/19 05:26:05;;;;;;;4.03;2.10;;;;;;;16.52;96.03;96739.69;5032452;28;20179;-71
2021/08/19 05:28:31;;;;;;;4.68;2.58;;;;;;;16.61;94.93;96734.50;5034700;28;20564;-62
2021/08/19 05:30:56;;;;;;;5.28;2.97;;;;;;;16.72;93.95;96739.94;5029057;28;20052;-63
2021/08/19 05:33:22;;;;;;;7.88;2.58;;;;;;;16.67;93.32;96737.59;5031827;28;20080;-62
2021/08/19 05:35:47;;;;;;;5.65;2.40;;;;;;;16.61;93.74;96734.50;5030172;28;20413;-65
2021/08/19 05:38:13;;;;;;;6.93;2.40;;;;;;;16.76;93.34;96732.44;5030502;28;20037;-62
2021/08/19 05:40:38;;;;;;;4.22;2.17;;;;;;;16.80;93.05;96737.94;5038045;28;20163;-63
2021/08/19 05:43:06;;;;;;;8.63;1.90;;;;;;;16.89;92.29;96737.47;5029788;28;20052;-69
2021/08/19 05:45:31;;;;;;;3.45;2.05;;;;;;;17.05;91.29;96746.06;5026730;28;20080;-64
2021/08/19 05:47:57;;;;;;;7.65;2.28;;;;;;;17.08;90.75;96736.91;5038452;28;20414;-64
2021/08/19 05:50:22;;;;;;;3.88;1.90;;;;;;;17.13;90.77;96741.25;5029562;28;21028;-62
2021/08/19 05:52:48;;;;;;;4.78;2.00;;;;;;;17.18;90.45;96746.34;5032351;28;20535;-64
2021/08/19 05:55:13;;;;;;;4.07;2.08;;;;;;;17.16;90.18;96749.50;5023263;28;20076;-64
2021/08/19 05:57:38;;;;;;;4.57;2.03;;;;;;;17.22;89.49;96749.06;5039328;28;20037;-63
2021/08/19 06:00:05;;;;;;;5.32;2.20;;;;;;;17.20;89.73;96747.50;5036951;28;20045;-68
2021/08/19 06:02:30;;;;;;;6.07;2.30;;;;;;;17.35;89.39;96747.34;5035233;28;20127;-65
2021/08/19 06:04:56;;;;;;;3.55;2.28;;;;;;;17.58;87.92;96743.97;5041333;28;20128;-62
2021/08/19 06:07:21;;;;;;;5.60;2.35;;;;;;;17.76;86.57;96746.53;5033688;28;20131;-62
2021/08/19 06:09:47;;;;;;;6.28;2.15;;;;;;;17.85;85.88;96749.63;5032884;28;20739;-65
2021/08/19 06:12:13;;;;;;;4.57;2.00;;;;;;;18.04;84.74;96751.00;5036345;28;20044;-62
2021/08/19 06:14:39;;;;;;;4.05;2.05;;;;;;;18.42;82.21;96756.44;5041294;28;20036;-63
2021/08/19 06:17:04;;;;;;;6.47;1.98;;;;;;;18.51;81.84;96753.94;5036777;28;20472;-68
2021/08/19 06:19:30;;;;;;;3.95;2.00;;;;;;;18.36;81.94;96760.88;5041559;28;20052;-64
2021/08/19 06:21:56;;;;;;;3.40;1.88;;;;;;;18.46;81.33;96751.63;5033492;28;20445;-64
2021/08/19 06:24:21;;;;;;;5.32;2.20;;;;;;;18.47;81.31;96755.19;5033619;28;20508;-63
2021/08/19 06:26:47;;;;;;;4.38;2.15;;;;;;;18.57;80.95;96756.25;5030611;28;20040;-64
2021/08/19 06:29:13;;;;;;;5.13;2.25;;;;;;;18.54;80.82;96753.09;5034718;28;20041;-64
2021/08/19 06:31:38;;;;;;;4.45;1.80;;;;;;;18.75;78.61;96753.22;5032201;28;20033;-65
2021/08/19 06:34:04;;;;;;;4.10;1.70;;;;;;;19.14;77.36;96749.03;5029177;28;20043;-71
2021/08/19 06:36:29;;;;;;;6.28;2.10;;;;;;;19.59;74.17;96756.97;5041694;28;20136;-64
2021/08/19 06:38:54;;;;;;;5.10;1.92;;;;;;;19.86;72.93;96756.88;5038112;28;20710;-64
2021/08/19 06:41:21;;;;;;;5.43;1.70;;;;;;;20.89;68.43;96749.56;5036808;28;20045;-66
2021/08/19 06:43:47;;;;;;;3.72;2.10;;;;;;;22.61;61.54;96752.53;5033220;28;20048;-63
2021/08/19 06:46:12;;;;;;;3.88;1.80;;;;;;;23.03;59.07;96753.22;5030076;28;20045;-66
2021/08/19 06:48:38;;;;;;;4.97;1.45;;;;;;;22.80;59.50;96740.38;5041339;28;20079;-64
2021/08/19 06:51:03;;;;;;;4.47;1.50;;;;;;;22.80;59.11;96747.97;5037104;28;20502;-68
2021/08/19 06:53:29;;;;;;;3.97;1.70;;;;;;;22.00;60.47;96745.94;5041418;28;20037;-63
2021/08/19 06:55:54;;;;;;;2.10;1.30;;;;;;;21.98;60.78;96754.72;5033817;28;20099;-63
2021/08/19 06:58:20;;;;;;;3.83;1.63;;;;;;;21.41;63.42;96751.47;5035571;28;20041;-64
2021/08/19 07:00:45;;;;;;;3.00;1.38;;;;;;;20.97;65.36;96743.38;5041680;28;20111;-64
2021/08/19 07:03:15;;;;;;;2.90;1.40;;;;;;;20.94;64.97;96746.25;5025579;28;20048;-66
2021/08/19 07:05:42;;;;;;;2.83;1.35;;;;;;;20.69;65.71;96741.25;5040048;28;20041;-64
2021/08/19 07:08:08;;;;;;;3.55;1.58;;;;;;;20.47;67.47;96741.72;5036663;28;20050;-65
2021/08/19 07:10:33;;;;;;;2.97;1.65;;;;;;;20.35;66.92;96745.97;5041679;28;20059;-66
2021/08/19 07:12:58;;;;;;;5.20;1.60;;;;;;;20.34;67.67;96751.97;5040919;28;20047;-67
2021/08/19 07:15:24;;;;;;;3.33;1.58;;;;;;;19.78;69.77;96755.47;5035288;28;20048;-66
2021/08/19 07:17:49;;;;;;;3.28;1.27;;;;;;;20.05;69.59;96747.00;5040988;28;20041;-65
2021/08/19 07:20:15;;;;;;;4.35;1.52;;;;;;;19.91;69.26;96744.50;5028056;28;20080;-66
2021/08/19 07:22:45;;;;;;;4.38;1.88;;;;;;;19.65;69.74;96744.94;5040140;28;20051;-65
2021/08/19 07:25:14;;;;;;;3.65;1.60;;;;;;;19.82;69.37;96747.84;5026777;28;20064;-63
2021/08/19 07:27:40;;;;;;;3.97;1.93;;;;;;;19.55;70.65;96747.94;5039764;28;20495;-64
2021/08/19 07:30:06;;;;;;;3.42;1.60;;;;;;;19.89;69.41;96747.69;5031351;28;20049;-67
2021/08/19 07:32:31;;;;;;;1.95;1.30;;;;;;;20.27;68.26;96735.41;5033995;28;20033;-65
2021/08/19 07:34:57;;;;;;;5.05;2.25;;;;;;;20.01;67.96;96740.72;5040391;28;20049;-65
2021/08/19 07:37:22;;;;;;;2.17;1.20;;;;;;;20.60;66.23;96737.06;5005604;28;20636;-65
2021/08/19 07:39:48;;;;;;;2.63;1.25;;;;;;;20.87;65.28;96744.44;5042243;28;20124;-65
2021/08/19 07:42:13;;;;;;;5.18;1.25;;;;;;;20.75;65.48;96745.13;5027853;28;20187;-66
2021/08/19 07:44:39;;;;;;;3.85;1.10;;;;;;;20.36;66.44;96738.41;5035603;28;20037;-64
2021/08/19 07:47:04;;;;;;;3.20;1.20;;;;;;;20.44;66.27;96743.38;5034933;28;20094;-70
2021/08/19 07:49:29;;;;;;;2.20;1.02;;;;;;;20.73;64.62;96742.00;5038810;28;20501;-66
2021/08/19 07:51:55;;;;;;;3.22;1.52;;;;;;;20.79;64.82;96735.44;5040726;28;20044;-64
2021/08/19 07:54:20;;;;;;;8.70;1.83;;;;;;;20.71;63.95;96738.84;5034391;28;20370;-66
2021/08/19 07:56:46;;;;;;;5.00;1.30;;;;;;;20.65;64.24;96733.00;5042071;28;20044;-67
2021/08/19 07:59:11;;;;;;;2.15;1.10;;;;;;;20.58;64.31;96733.13;5035750;28;20036;-65
2021/08/19 08:01:37;;;;;;;3.45;1.50;;;;;;;20.57;65.06;96735.13;5041291;28;20080;-66
2021/08/19 08:04:03;;;;;;;3.33;1.50;;;;;;;20.58;64.41;96736.72;5037870;28;20075;-69
2021/08/19 08:06:29;;;;;;;4.38;1.83;;;;;;;20.61;64.58;96738.66;5022388;28;20596;-67
2021/08/19 08:08:54;;;;;;;2.80;1.58;;;;;;;20.21;64.70;96743.50;5023559;28;20045;-66
2021/08/19 08:11:19;;;;;;;4.22;1.63;;;;;;;19.60;68.51;96745.44;5017705;28;20117;-66
2021/08/19 08:13:45;;;;;;;3.50;1.67;;;;;;;20.14;66.41;96752.75;5039673;28;20048;-67
2021/08/19 08:16:10;;;;;;;4.20;1.50;;;;;;;20.13;66.27;96747.63;5035864;28;20127;-66
2021/08/19 08:18:36;;;;;;;2.50;1.40;;;;;;;20.41;65.73;96752.56;5039847;28;20291;-66
2021/08/19 08:21:03;;;;;;;2.92;1.10;;;;;;;20.77;64.70;96753.81;5037016;28;20057;-67
2021/08/19 08:23:32;;;;;;;2.88;1.35;;;;;;;20.85;64.52;96748.84;5032295;28;20044;-66
2021/08/19 08:25:58;;;;;;;2.63;1.40;;;;;;;21.30;62.80;96757.31;5035811;28;20064;-67
2021/08/19 08:28:27;;;;;;;4.43;1.88;;;;;;;21.45;62.02;96754.97;5032767;28;20733;-65
2021/08/19 08:30:53;;;;;;;2.60;1.17;;;;;;;21.36;61.43;96747.19;5040314;28;20080;-68
2021/08/19 08:33:20;;;;;;;2.72;1.50;;;;;;;21.28;61.27;96759.72;5029757;28;20122;-66
2021/08/19 08:35:46;;;;;;;3.92;1.20;;;;;;;21.29;62.09;96754.97;5039339;28;20084;-65
2021/08/19 08:38:14;;;;;;;2.28;1.25;;;;;;;21.26;61.91;96764.19;5031197;28;20401;-66
2021/08/19 08:40:42;;;;;;;2.85;1.35;;;;;;;21.39;61.79;96759.44;5038285;28;20053;-66
2021/08/19 08:43:09;;;;;;;2.80;1.38;;;;;;;21.46;61.78;96756.50;5031989;28;20514;-66
2021/08/19 08:45:36;;;;;;;3.90;1.15;;;;;;;21.94;59.64;96756.84;5017531;28;20077;-67
2021/08/19 08:48:04;;;;;;;2.97;1.40;;;;;;;21.69;60.63;96760.31;5037566;28;20049;-65
2021/08/19 08:50:31;;;;;;;3.20;1.17;;;;;;;21.48;61.71;96759.66;5036677;28;20106;-65
2021/08/19 08:52:59;;;;;;;1.67;0.95;;;;;;;21.67;61.32;96762.75;5038592;28;20084;-66
2021/08/19 08:55:26;;;;;;;3.95;2.05;;;;;;;21.79;61.23;96758.44;5033927;28;20060;-66
2021/08/19 08:57:53;;;;;;;6.13;3.15;;;;;;;22.16;58.33;96757.00;5035011;28;20098;-66
2021/08/19 09:00:18;;;;;;;2.38;1.27;;;;;;;22.38;57.74;96756.41;5030452;28;20053;-67
2021/08/19 09:02:44;;;;;;;2.50;1.50;;;;;;;22.73;56.77;96760.16;5037870;28;20666;-67
2021/08/19 09:05:17;;;;;;;1.95;1.35;;;;;;;23.02;54.72;96762.81;5034827;28;20044;-70
2021/08/19 09:08:04;;;;;;;2.38;1.00;;;;;;;22.87;55.54;96756.13;5036309;28;20037;-67
2021/08/19 09:10:33;;;;;;;2.17;1.00;;;;;;;23.06;55.32;96755.13;5036848;28;20041;-68
2021/08/19 09:13:08;;;;;;;2.03;1.10;;;;;;;23.24;54.52;96765.72;5037282;28;20037;-68
2021/08/19 09:15:33;;;;;;;3.03;1.58;;;;;;;21.67;55.66;96768.34;5037507;28;20048;-64
2021/08/19 09:18:00;;;;;;;3.70;1.20;;;;;;;21.60;57.04;96758.16;5037440;28;20044;-66
2021/08/19 09:20:38;;;;;;;4.25;1.35;;;;;;;22.50;55.78;96770.38;5032826;28;20052;-68
2021/08/19 09:23:13;;;;;;;2.83;1.13;;;;;;;23.08;53.87;96763.84;5033197;28;20033;-70
2021/08/19 09:25:41;;;;;;;1.60;1.00;;;;;;;23.02;53.77;96768.41;5036451;28;20048;-66
2021/08/19 09:28:12;;;;;;;2.78;1.05;;;;;;;23.21;54.01;96765.84;5033817;28;20048;-67
2021/08/19 09:30:41;;;;;;;2.33;1.00;;;;;;;23.11;52.53;96766.97;5041067;28;20048;-65
2021/08/19 09:33:08;;;;;;;3.65;1.00;;;;;;;23.62;51.68;96769.66;5036853;28;20072;-67
2021/08/19 09:35:34;;;;;;;1.77;1.00;;;;;;;23.90;50.74;96769.94;5040187;28;20056;-65
2021/08/19 09:38:20;;;;;;;1.83;0.90;;;;;;;22.56;51.69;96764.25;5040898;28;20413;-67
2021/08/19 09:41:15;;;;;;;4.38;2.15;;;;;;;21.80;56.35;96769.16;5040824;28;20067;-67
2021/08/19 09:43:45;;;;;;;2.55;1.08;;;;;;;22.35;54.63;96763.69;5036432;28;20036;-68
2021/08/19 09:46:13;;;;;;;1.70;0.90;;;;;;;22.36;54.60;96762.44;5032572;28;20094;-67
2021/08/19 09:48:38;;;;;;;4.75;0.90;;;;;;;23.49;51.83;96758.50;5040430;28;20110;-66
2021/08/19 09:51:22;;;;;;;2.22;1.10;;;;;;;23.96;48.66;96759.72;5033812;28;20041;-70
2021/08/19 09:53:53;;;;;;;9.18;5.55;;;;;;;22.28;50.81;96758.31;5041595;28;20041;-67
2021/08/19 09:56:37;;;;;;;2.03;1.00;;;;;;;23.75;49.95;96753.63;5036377;28;20029;-67
2021/08/19 09:59:18;;;;;;;1.88;0.88;;;;;;;24.34;47.08;96756.69;5033970;28;20219;-70
2021/08/19 10:01:45;;;;;;;1.25;0.70;;;;;;;25.05;44.98;96754.41;5040893;28;20124;-68
2021/08/19 10:04:12;;;;;;;2.05;0.95;;;;;;;25.45;43.94;96736.78;5035535;28;20137;-67
2021/08/19 10:06:37;;;;;;;2.20;0.90;;;;;;;25.71;43.74;96734.44;5041972;28;20086;-66
2021/08/19 10:09:06;;;;;;;2.30;0.88;;;;;;;24.34;43.27;96731.50;5038160;28;20131;-69
2021/08/19 10:11:35;;;;;;;1.23;0.80;;;;;;;23.28;45.88;96732.88;4983675;28;20049;-67
2021/08/19 10:14:02;;;;;;;1.05;0.65;;;;;;;23.02;48.84;96720.16;5042730;28;20150;-66
2021/08/19 10:16:33;;;;;;;7.53;6.82;;;;;;;23.69;48.08;96721.88;5018077;28;20053;-65
2021/08/19 10:19:02;;;;;;;2.47;1.42;;;;;;;23.91;47.26;96718.34;5042305;28;20155;-65
2021/08/19 10:21:28;;;;;;;1.97;1.20;;;;;;;25.13;46.53;96713.66;5037099;28;20125;-66
2021/08/19 10:23:55;;;;;;;4.93;1.70;;;;;;;25.65;43.71;96720.28;5037982;28;20049;-68
2021/08/19 10:26:23;;;;;;;2.67;1.00;;;;;;;25.54;43.40;96714.34;5037616;28;20578;-67
2021/08/19 10:28:59;;;;;;;4.40;1.35;;;;;;;22.68;46.48;96713.25;5035680;28;20132;-66
2021/08/19 10:31:36;;;;;;;2.50;1.30;;;;;;;21.74;51.84;96721.53;5036171;28;20079;-67
2021/08/19 10:34:02;;;;;;;2.13;1.02;;;;;;;22.53;51.61;96707.34;5038867;28;20067;-67
2021/08/19 10:36:31;;;;;;;2.17;1.05;;;;;;;24.00;48.79;96705.22;5037298;28;20041;-66
2021/08/19 10:39:18;;;;;;;2.88;1.30;;;;;;;24.57;46.77;96705.06;5041735;28;20496;-67
2021/08/19 10:41:44;;;;;;;1.90;0.90;;;;;;;25.21;45.78;96706.50;5039012;28;20086;-67
2021/08/19 10:44:10;;;;;;;3.88;1.55;;;;;;;25.32;45.25;96703.28;5034521;28;20041;-67
2021/08/19 10:46:42;;;;;;;2.28;1.10;;;;;;;24.17;48.23;96711.38;5025446;28;20040;-67
2021/08/19 10:49:27;;;;;;;2.88;0.90;;;;;;;25.08;46.86;96700.25;5034492;28;20128;-69
2021/08/19 10:51:52;;;;;;;2.13;1.08;;;;;;;25.46;45.30;96699.88;5042646;28;20074;-68
2021/08/19 10:54:39;;;;;;;1.42;0.80;;;;;;;26.58;40.77;96692.06;5040205;28;20044;-67
2021/08/19 10:57:24;;;;;;;1.30;0.73;;;;;;;27.07;40.07;96694.50;5033201;28;20053;-69
2021/08/19 10:59:56;;;;;;;1.80;0.90;;;;;;;26.94;41.06;96690.34;5038990;28;20068;-67
2021/08/19 11:02:43;;;;;;;3.53;1.17;;;;;;;26.52;41.71;96694.72;5036700;28;20053;-67
2021/08/19 11:05:33;;;;;;;2.20;0.98;;;;;;;27.34;39.48;96692.78;5033065;28;20041;-66
2021/08/19 11:08:00;;;;;;;1.50;0.90;;;;;;;26.12;42.09;96693.75;5040793;28;20509;-66
2021/08/19 11:10:39;;;;;;;3.55;1.10;;;;;;;25.82;41.24;96694.72;5037726;28;20053;-66
2021/08/19 11:13:13;;;;;;;2.67;0.80;;;;;;;26.02;41.61;96697.84;5034377;28;20051;-69
2021/08/19 11:15:47;;;;;;;1.83;1.00;;;;;;;26.11;42.22;96694.25;5040769;28;20479;-67
2021/08/19 11:18:26;;;;;;;1.95;1.10;;;;;;;25.74;42.28;96694.25;5037367;28;20557;-66
2021/08/19 11:20:52;;;;;;;;;;;;;;;26.03;41.77;96693.00;5042314;28;20059;-69
2021/08/19 11:23:18;;;;;;;2.83;1.15;;;;;;;25.44;43.17;96693.16;5035389;28;20388;-70
2021/08/19 11:25:45;;;;;;;2.60;1.10;;;;;;;25.04;44.94;96696.81;5036792;28;20389;-66
2021/08/19 11:28:14;;;;;;;2.72;0.85;;;;;;;25.25;44.25;96693.16;5035362;28;20498;-67
2021/08/19 11:30:47;;;;;;;;;;;;;;;25.59;43.43;96693.31;5040865;28;20041;-68
2021/08/19 11:33:15;;;;;;;1.83;0.90;;;;;;;26.03;42.54;96690.97;5036710;28;19916;-67